Terminal Aerodrome Forecast
Issued by NWS Pocatello, ID

Home | Current Version | Previous Version | Text Only | Print | Product List | Glossary On
Versions: 1 2 3 4 5 6 7 8 9 10 11 12 13 14 15 16
000
FTUS45 KPIH 111100
TAFIDA
TAF
KIDA 111120Z 1112/1212 VRB05KT P6SM FEW090 SCT140 SCT180
     FM111600 24008KT P6SM FEW130 SCT160
     FM112100 24010G20KT P6SM VCTS FEW100CB SCT160
     FM120300 18006KT P6SM SCT100 BKN160
     FM120600 14006KT P6SM BKN100=

USA.gov is the U.S. government's official web portal to all federal, state and local government web resources and services.